KSOA

Details ICAO KSOA
Name SONORA MUNI
Region United States
Timezone America/Chicago (UTC-6.0)
Plans Departing 2
Arriving 5
Stats Elevation 2,140 ft / 652 m (AMSL)
Location 30.585700° -100.648561°
Runways 1
Magnetic Variation 5.412° E
Sunrise 2017-12-12 13:31:59 UTC / 2017-12-12 07:31:59 Local
Sunset 2017-12-12 23:43:47 UTC / 2017-12-12 17:43:47 Local
Advertisement - Login to hide

Runways

ID Width Length Bearing (true) Bearing (mag) Surface Threshold Offset Overrun Length
18 60 ft / 18 m 4,048 ft / 1,234 m 189.93° 184.52° Asphalt 93 ft / 28 m 0 ft / 0 m
36 60 ft / 18 m 4,048 ft / 1,234 m 9.93° 4.52° Asphalt 600 ft / 183 m 0 ft / 0 m

Map

Weather


0- 5 10 15 20 25 30 35+ Temperature / ° C

Clouds and Precipitation
Forecast for 2017-12-13 00:00 UTC. Updated an hour ago

Ground ~20,000 ft ~40,000 ft Winds

METAR

KSOA 122155Z AUTO 00000KT 10SM CLR 15/M08 A3037 RMK AO2

TAF

KSOA 121730Z 1218/1318 01009KT P6SM SKC FM130000 VRB03KT P6SM SKC FM131700 21009KT P6SM SCT250

Frequencies

Recorded 118.07 MHz AWOS 3
Unicom 122.80 MHz CTAF/UNICOM
Warning: Do not use this data for real-world aviation or navigation. No guarantee of current accuracy is given.